Time;durP1;ratioP1;P1;durP2;ratioP2;P2;SDS_P1;SDS_P2;PMS_P1;PMS_P2;Temp;Humidity;BMP_temperature;BMP_pressure;BME280_temperature;BME280_humidity;BME280_pressure;Samples;Min_cycle;Max_cycle;Signal;HPM_P1;HPM_P2
2022/12/02 00:01:42;;;;;;;2.10;1.98;;;2.70;99.90;;;;;;5033105;28;20563;-83
2022/12/02 00:04:27;;;;;;;4.50;3.58;;;2.80;99.90;;;;;;5032938;28;20046;-84
2022/12/02 00:06:57;;;;;;;1.20;1.13;;;2.70;99.90;;;;;;5032845;28;20041;-84
2022/12/02 00:09:34;;;;;;;2.33;2.13;;;3.00;99.90;;;;;;5032941;28;20160;-83
2022/12/02 00:12:11;;;;;;;6.03;2.90;;;2.80;99.90;;;;;;5032359;28;20056;-84
2022/12/02 00:14:38;;;;;;;2.42;2.22;;;2.80;99.90;;;;;;5032585;28;20073;-84
2022/12/02 00:17:04;;;;;;;1.40;1.30;;;2.80;99.90;;;;;;5033192;28;20045;-83
2022/12/02 00:19:29;;;;;;;3.92;1.65;;;2.70;99.90;;;;;;5032123;28;20042;-84
2022/12/02 00:21:55;;;;;;;7.75;4.38;;;2.70;99.90;;;;;;5032348;28;20441;-84
2022/12/02 00:24:21;;;;;;;2.55;2.35;;;2.70;99.90;;;;;;5014771;28;20107;-84
2022/12/02 00:26:47;;;;;;;2.33;2.00;;;2.70;99.90;;;;;;5032307;28;20048;-84
2022/12/02 00:29:13;;;;;;;2.67;2.42;;;2.70;97.10;;;;;;5033059;28;20100;-84
2022/12/02 00:31:38;;;;;;;1.88;1.75;;;2.80;99.90;;;;;;5033287;28;20814;-84
2022/12/02 00:34:04;;;;;;;1.80;1.70;;;2.80;33.60;;;;;;5032338;28;20041;-85
2022/12/02 00:36:30;;;;;;;1.98;1.88;;;2.80;99.90;;;;;;5015225;28;20049;-85
2022/12/02 00:38:57;;;;;;;3.55;2.83;;;2.70;92.40;;;;;;5031550;28;20089;-84
2022/12/02 00:41:23;;;;;;;0.90;0.90;;;2.70;9.10;;;;;;4999652;28;20049;-84
2022/12/02 00:46:34;;;;;;;1.75;1.45;;;2.80;1.00;;;;;;5033447;28;20049;-85
2022/12/02 00:49:13;;;;;;;4.18;1.55;;;2.80;1.00;;;;;;5033270;28;20095;-84
2022/12/02 00:51:42;;;;;;;3.03;2.53;;;2.80;99.90;;;;;;5032923;28;20140;-84
2022/12/02 00:54:09;;;;;;;3.15;2.15;;;2.80;99.90;;;;;;5032118;28;20045;-84
2022/12/02 00:56:35;;;;;;;2.05;1.65;;;2.70;66.60;;;;;;5015536;28;20048;-84
2022/12/02 00:59:04;;;;;;;0.38;0.38;;;2.70;99.90;;;;;;5015488;28;20046;-85
2022/12/02 01:01:30;;;;;;;1.17;1.08;;;2.70;99.90;;;;;;5015077;28;20479;-84
2022/12/02 01:03:56;;;;;;;5.10;3.53;;;2.70;99.90;;;;;;5033359;28;20140;-84
2022/12/02 01:06:22;;;;;;;1.10;1.00;;;3.50;1.00;;;;;;5033599;28;20124;-84
2022/12/02 01:08:48;;;;;;;1.63;1.52;;;2.70;99.90;;;;;;5033093;28;20133;-84
2022/12/02 01:11:14;;;;;;;2.15;1.63;;;2.70;91.80;;;;;;5014800;28;20064;-84
2022/12/02 01:13:40;;;;;;;7.97;3.13;;;3.20;99.90;;;;;;5015121;28;20132;-85
2022/12/02 01:16:06;;;;;;;1.45;1.23;;;3.10;1.00;;;;;;5014737;28;20056;-85
2022/12/02 01:18:32;;;;;;;1.60;1.48;;;2.70;1.00;;;;;;5015312;28;20140;-84
2022/12/02 01:20:57;;;;;;;2.00;1.90;;;2.70;92.50;;;;;;5015028;28;20075;-84
2022/12/02 01:23:23;;;;;;;1.85;1.73;;;2.70;99.90;;;;;;5014538;28;20054;-84
2022/12/02 01:25:49;;;;;;;1.38;1.27;;;2.70;1.00;;;;;;5014576;28;20053;-84
2022/12/02 01:28:16;;;;;;;3.88;2.30;;;2.70;99.90;;;;;;5013767;28;20939;-84
2022/12/02 01:30:41;;;;;;;4.00;2.33;;;2.70;99.90;;;;;;4997154;28;20053;-84
2022/12/02 01:33:07;;;;;;;2.60;2.28;;;2.70;1.00;;;;;;5030314;28;20060;-84
2022/12/02 01:35:33;;;;;;;7.72;3.90;;;2.70;99.90;;;;;;5013528;28;20504;-84
2022/12/02 01:37:59;;;;;;;1.85;1.73;;;2.70;1.00;;;;;;5029954;28;20041;-84
2022/12/02 01:40:26;;;;;;;2.80;1.85;;;2.60;99.90;;;;;;5031195;28;20100;-84
2022/12/02 01:42:52;;;;;;;1.70;1.60;;;2.60;99.90;;;;;;4997167;28;20389;-85
2022/12/02 01:45:18;;;;;;;2.65;2.45;;;2.60;99.90;;;;;;5013939;28;20063;-84
2022/12/02 01:47:44;;;;;;;1.40;0.98;;;2.60;99.90;;;;;;5031508;28;20105;-83
2022/12/02 01:50:12;;;;;;;0.68;0.65;;;2.60;99.90;;;;;;5014314;28;20048;-84
2022/12/02 01:52:38;;;;;;;2.50;0.90;;;2.60;99.90;;;;;;5030043;28;20404;-85
2022/12/02 01:55:09;;;;;;;5.80;2.40;;;2.60;99.90;;;;;;5013227;28;20037;-84
2022/12/02 01:57:35;;;;;;;9.85;2.50;;;2.60;1.00;;;;;;5012877;28;20124;-84
2022/12/02 02:00:01;;;;;;;1.88;1.77;;;2.50;1.00;;;;;;5030766;28;20113;-84
2022/12/02 02:02:32;;;;;;;1.23;1.13;;;2.50;99.90;;;;;;5029909;28;20042;-84
2022/12/02 02:05:05;;;;;;;3.70;3.10;;;2.40;99.90;;;;;;5032096;28;20044;-84
2022/12/02 02:07:32;;;;;;;2.50;2.30;;;2.40;99.90;;;;;;5031689;28;20057;-84
2022/12/02 02:09:58;;;;;;;3.55;3.10;;;3.30;99.90;;;;;;5032155;28;20057;-84
2022/12/02 02:12:25;;;;;;;3.90;1.55;;;2.20;99.90;;;;;;5012938;28;20057;-85
2022/12/02 02:14:51;;;;;;;2.25;1.85;;;2.20;1.00;;;;;;4996403;28;20059;-84
2022/12/02 02:17:17;;;;;;;4.55;3.95;;;2.10;1.00;;;;;;5030412;28;20604;-84
2022/12/02 02:19:43;;;;;;;14.18;4.38;;;2.10;1.00;;;;;;5012211;28;20045;-84
2022/12/02 02:22:24;;;;;;;1.73;1.60;;;2.10;29.50;;;;;;5012180;28;20167;-85
2022/12/02 02:24:50;;;;;;;1.35;1.25;;;2.10;12.40;;;;;;4996699;28;20049;-84
2022/12/02 02:27:15;;;;;;;2.83;1.65;;;2.10;7.30;;;;;;5030051;28;20046;-83
2022/12/02 02:29:41;;;;;;;6.15;1.27;;;2.10;51.30;;;;;;5030535;28;20049;-84
2022/12/02 02:32:07;;;;;;;2.47;1.80;;;2.10;56.40;;;;;;5028650;28;20553;-84
2022/12/02 02:34:33;;;;;;;2.10;1.90;;;2.10;24.00;;;;;;5030213;28;20050;-84
2022/12/02 02:36:58;;;;;;;1.17;1.08;;;2.10;30.60;;;;;;5011543;28;20392;-84
2022/12/02 02:39:25;;;;;;;4.00;3.65;;;2.10;38.90;;;;;;5028970;28;20180;-84
2022/12/02 02:41:53;;;;;;;0.85;0.85;;;2.60;1.00;;;;;;5011770;28;20784;-84
2022/12/02 02:44:19;;;;;;;2.63;1.20;;;2.10;10.30;;;;;;5029866;28;20053;-84
2022/12/02 02:46:45;;;;;;;0.80;0.80;;;2.20;57.10;;;;;;5029628;28;20049;-84
2022/12/02 02:49:11;;;;;;;4.95;1.88;;;2.20;92.60;;;;;;5030761;28;20051;-83
2022/12/02 02:51:37;;;;;;;4.70;2.13;;;2.20;99.90;;;;;;5030469;28;20403;-83
2022/12/02 02:54:02;;;;;;;1.55;1.45;;;2.20;99.90;;;;;;5029700;28;20053;-84
2022/12/02 02:56:28;;;;;;;2.30;2.10;;;2.20;99.90;;;;;;5011785;28;20053;-83
2022/12/02 03:01:35;;;;;;;0.52;0.52;;;2.20;99.90;;;;;;4928584;22;20114;-76
2022/12/02 03:04:06;;;;;;;4.45;3.92;;;2.20;99.90;;;;;;5037611;28;20061;-76
2022/12/02 03:06:33;;;;;;;0.82;0.82;;;2.20;97.30;;;;;;5042194;28;20060;-76
2022/12/02 03:09:01;;;;;;;1.88;1.77;;;2.20;92.00;;;;;;5041067;28;20083;-76
2022/12/02 03:11:27;;;;;;;6.72;2.28;;;2.10;99.90;;;;;;5039187;28;20124;-80
2022/12/02 03:13:54;;;;;;;4.25;1.48;;;2.10;99.90;;;;;;5041855;28;20490;-76
2022/12/02 03:16:23;;;;;;;1.80;1.70;;;2.10;97.60;;;;;;5041599;28;20405;-76
2022/12/02 03:18:50;;;;;;;0.95;0.95;;;2.10;97.00;;;;;;5019688;28;20045;-76
2022/12/02 03:21:18;;;;;;;1.35;1.25;;;2.00;94.70;;;;;;5028870;28;20106;-76
2022/12/02 03:23:48;;;;;;;1.58;1.48;;;2.00;96.90;;;;;;5025050;28;20056;-76
2022/12/02 03:26:14;;;;;;;4.30;3.53;;;2.00;99.90;;;;;;5022456;28;20089;-77
2022/12/02 03:28:41;;;;;;;2.58;2.38;;;2.00;99.90;;;;;;5009470;28;20033;-76
2022/12/02 03:31:08;;;;;;;3.72;3.42;;;1.90;99.90;;;;;;5028313;28;20038;-76
2022/12/02 03:33:34;;;;;;;0.80;0.80;;;2.00;99.90;;;;;;5024155;28;20099;-76
2022/12/02 03:36:00;;;;;;;0.50;0.50;;;1.90;99.90;;;;;;5041813;28;20045;-76
2022/12/02 03:38:26;;;;;;;2.38;2.17;;;1.90;99.90;;;;;;5041965;28;20483;-77
2022/12/02 03:40:52;;;;;;;2.75;2.13;;;1.90;99.90;;;;;;5041878;28;20072;-76
2022/12/02 03:43:18;;;;;;;4.43;1.40;;;1.90;99.90;;;;;;5042049;28;20270;-76
2022/12/02 03:45:44;;;;;;;7.38;2.75;;;1.80;99.90;;;;;;5041394;28;20106;-76
2022/12/02 03:48:11;;;;;;;1.45;1.35;;;1.90;99.90;;;;;;5029180;28;20041;-76
2022/12/02 03:50:38;;;;;;;1.10;1.03;;;1.80;99.90;;;;;;5021684;28;20060;-76
2022/12/02 03:53:04;;;;;;;7.97;5.53;;;1.90;99.90;;;;;;5003963;28;20060;-76
2022/12/02 03:55:30;;;;;;;3.65;3.38;;;1.80;99.90;;;;;;5021170;28;20638;-76
2022/12/02 03:58:03;;;;;;;2.20;1.40;;;1.80;99.90;;;;;;5027677;28;20040;-76
2022/12/02 04:00:28;;;;;;;1.42;1.33;;;1.80;99.90;;;;;;5052667;28;20444;-75
2022/12/02 04:02:54;;;;;;;1.48;1.38;;;1.80;99.90;;;;;;5061835;28;20060;-75
2022/12/02 04:05:20;;;;;;;3.60;2.88;;;1.80;90.10;;;;;;5061268;28;20055;-76
2022/12/02 04:07:45;;;;;;;1.80;1.70;;;1.80;60.20;;;;;;5060846;28;20460;-76
2022/12/02 04:10:11;;;;;;;2.20;1.95;;;1.80;35.10;;;;;;5060426;28;20127;-76
2022/12/02 04:12:37;;;;;;;4.18;2.72;;;1.90;1.00;;;;;;5060366;28;20090;-76
2022/12/02 04:15:03;;;;;;;2.85;2.55;;;1.80;1.00;;;;;;5061211;28;20049;-75
2022/12/02 04:17:28;;;;;;;1.85;1.75;;;1.80;1.00;;;;;;5060856;28;20892;-76
2022/12/02 04:19:54;;;;;;;1.10;1.08;;;1.80;1.00;;;;;;5060866;28;20048;-76
2022/12/02 04:22:20;;;;;;;1.05;1.00;;;1.90;1.00;;;;;;5060914;28;20041;-76
2022/12/02 04:24:46;;;;;;;1.55;1.42;;;1.80;1.00;;;;;;5060975;28;20195;-76
2022/12/02 04:27:11;;;;;;;3.47;3.20;;;1.80;1.00;;;;;;5061711;28;20044;-76
2022/12/02 04:29:37;;;;;;;0.90;0.90;;;1.80;1.00;;;;;;5046822;28;20135;-75
2022/12/02 04:32:03;;;;;;;1.23;1.13;;;1.80;1.00;;;;;;5064845;28;20468;-76
2022/12/02 04:34:29;;;;;;;2.22;2.08;;;1.80;1.00;;;;;;5065050;28;20052;-76
2022/12/02 04:36:55;;;;;;;2.50;2.30;;;1.80;1.00;;;;;;5063944;28;20082;-76
2022/12/02 04:39:20;;;;;;;2.20;1.98;;;1.80;1.00;;;;;;5064377;28;20045;-76
2022/12/02 04:41:46;;;;;;;18.67;3.70;;;1.80;1.00;;;;;;5064165;28;20052;-76
2022/12/02 04:44:12;;;;;;;4.00;1.27;;;1.80;1.00;;;;;;5064167;28;20054;-75
2022/12/02 04:46:37;;;;;;;1.60;1.50;;;1.80;1.00;;;;;;5064604;28;20044;-75
2022/12/02 04:49:03;;;;;;;5.53;1.25;;;1.70;1.00;;;;;;5035257;28;20045;-76
2022/12/02 04:51:29;;;;;;;10.98;3.58;;;1.70;12.00;;;;;;5044294;28;20852;-75
2022/12/02 04:53:54;;;;;;;2.85;2.40;;;1.70;43.10;;;;;;5044320;28;20078;-76
2022/12/02 04:56:20;;;;;;;2.20;2.05;;;1.70;73.80;;;;;;5043957;28;20754;-76
2022/12/02 04:58:46;;;;;;;1.45;0.52;;;1.70;55.20;;;;;;5043960;28;20079;-76
2022/12/02 05:01:11;;;;;;;4.47;3.00;;;1.70;74.00;;;;;;5043986;28;20111;-76
2022/12/02 05:03:37;;;;;;;1.90;1.75;;;1.70;80.10;;;;;;5044100;28;20132;-76
2022/12/02 05:06:03;;;;;;;3.70;3.17;;;1.70;60.80;;;;;;5044079;28;20092;-76
2022/12/02 05:08:28;;;;;;;1.80;1.70;;;1.60;86.40;;;;;;5044388;28;20556;-76
2022/12/02 05:10:54;;;;;;;1.60;1.50;;;1.60;99.90;;;;;;5044520;28;20080;-75
2022/12/02 05:13:20;;;;;;;1.63;1.52;;;1.60;99.90;;;;;;5044242;28;20037;-75
2022/12/02 05:15:45;;;;;;;5.10;4.28;;;1.60;99.90;;;;;;5044003;28;20049;-76
2022/12/02 05:18:11;;;;;;;1.85;1.75;;;1.90;99.90;;;;;;5043616;28;20092;-75
2022/12/02 05:20:37;;;;;;;2.25;2.05;;;1.60;99.90;;;;;;5043353;28;20083;-75
2022/12/02 05:23:02;;;;;;;0.22;0.22;;;1.50;99.90;;;;;;5043847;28;20048;-76
2022/12/02 05:25:28;;;;;;;1.92;1.80;;;1.60;99.90;;;;;;5044027;28;20041;-77
2022/12/02 05:27:54;;;;;;;3.13;2.33;;;1.60;99.90;;;;;;5043732;28;20463;-76
2022/12/02 05:30:20;;;;;;;14.55;6.45;;;1.60;99.90;;;;;;5043797;28;20048;-77
2022/12/02 05:32:45;;;;;;;1.40;1.30;;;1.60;99.90;;;;;;5061185;28;20056;-77
2022/12/02 05:35:11;;;;;;;1.85;1.67;;;1.60;99.90;;;;;;5063610;28;20084;-77
2022/12/02 05:37:37;;;;;;;2.93;2.63;;;1.60;99.90;;;;;;5062982;28;20567;-77
2022/12/02 05:40:03;;;;;;;0.82;0.82;;;1.70;99.90;;;;;;5061991;28;20040;-77
2022/12/02 05:42:29;;;;;;;1.23;1.13;;;1.70;99.90;;;;;;5043374;28;20620;-77
2022/12/02 05:44:59;;;;;;;2.20;2.10;;;1.70;99.90;;;;;;5043650;28;20049;-77
2022/12/02 05:47:28;;;;;;;1.80;1.48;;;1.80;99.90;;;;;;5025550;28;20048;-77
2022/12/02 05:49:54;;;;;;;4.43;2.83;;;1.80;99.90;;;;;;5043235;28;20052;-77
2022/12/02 05:52:26;;;;;;;1.40;1.30;;;1.80;99.90;;;;;;5043278;28;20045;-77
2022/12/02 05:54:54;;;;;;;6.47;2.05;;;1.80;99.90;;;;;;5043162;28;20496;-77
2022/12/02 05:57:24;;;;;;;2.42;2.22;;;1.80;99.90;;;;;;5041654;28;20449;-77
2022/12/02 05:59:50;;;;;;;1.63;1.50;;;1.80;99.90;;;;;;5041629;28;20525;-77
2022/12/02 06:02:37;;;;;;;4.70;2.92;;;1.90;99.90;;;;;;5044658;28;20032;-77
2022/12/02 06:05:14;;;;;;;0.93;0.93;;;1.90;99.90;;;;;;5059008;28;20592;-77
2022/12/02 06:07:39;;;;;;;2.40;2.20;;;1.90;99.90;;;;;;5039424;28;20044;-77
2022/12/02 06:10:25;;;;;;;2.17;1.95;;;1.90;99.90;;;;;;5054147;28;20052;-77
2022/12/02 06:12:54;;;;;;;5.82;2.72;;;1.90;99.90;;;;;;5051524;28;20044;-77
2022/12/02 06:15:20;;;;;;;2.47;2.28;;;1.90;99.90;;;;;;5039281;28;20055;-77
2022/12/02 06:17:46;;;;;;;2.10;1.98;;;1.90;99.90;;;;;;5025704;28;20531;-77
2022/12/02 06:20:24;;;;;;;7.03;2.80;;;1.90;99.90;;;;;;5040700;28;20053;-77
2022/12/02 06:22:50;;;;;;;1.58;1.48;;;2.00;99.90;;;;;;5038980;28;20679;-76
2022/12/02 06:25:25;;;;;;;2.08;0.90;;;2.00;99.90;;;;;;5038538;28;20052;-77
2022/12/02 06:27:54;;;;;;;2.47;2.28;;;2.00;99.90;;;;;;5038653;28;20056;-77
2022/12/02 06:30:20;;;;;;;4.00;3.55;;;2.00;99.90;;;;;;5042835;28;20040;-77
2022/12/02 06:32:54;;;;;;;3.40;3.10;;;2.00;99.90;;;;;;5061550;28;20143;-77
2022/12/02 06:35:25;;;;;;;2.13;2.03;;;2.10;99.90;;;;;;5041266;28;20520;-77
2022/12/02 06:38:07;;;;;;;2.33;2.08;;;2.10;99.90;;;;;;5040862;28;20045;-77
2022/12/02 06:40:35;;;;;;;2.08;1.98;;;2.10;99.90;;;;;;5040803;28;20437;-76
2022/12/02 06:43:11;;;;;;;1.67;1.58;;;2.10;99.90;;;;;;5040196;28;20057;-77
2022/12/02 06:45:36;;;;;;;5.47;2.58;;;2.10;99.90;;;;;;5039615;28;20084;-77
2022/12/02 06:48:24;;;;;;;4.10;3.72;;;2.20;99.90;;;;;;5039309;28;20138;-77
2022/12/02 06:50:50;;;;;;;1.65;1.55;;;2.20;99.90;;;;;;5038441;28;20067;-76
2022/12/02 06:53:15;;;;;;;1.23;1.20;;;2.20;99.90;;;;;;5039198;28;20501;-76
2022/12/02 06:55:42;;;;;;;2.40;1.92;;;2.20;99.90;;;;;;5039023;28;20057;-76
2022/12/02 06:58:23;;;;;;;2.17;1.70;;;2.20;99.90;;;;;;5040015;28;20515;-76
2022/12/02 07:00:48;;;;;;;1.73;1.63;;;2.10;99.90;;;;;;5054559;28;20527;-76
2022/12/02 07:03:29;;;;;;;3.97;2.83;;;2.20;99.90;;;;;;5061031;28;20572;-77
2022/12/02 07:06:14;;;;;;;2.40;2.22;;;2.20;99.90;;;;;;5060860;28;20040;-76
2022/12/02 07:08:40;;;;;;;3.05;2.72;;;2.20;99.90;;;;;;5042964;28;20455;-77
2022/12/02 07:14:25;;;;;;;5.38;4.85;;;2.30;99.90;;;;;;5062924;28;20051;-76
2022/12/02 07:16:56;;;;;;;2.13;2.00;;;2.40;99.90;;;;;;5065800;28;20037;-76
2022/12/02 07:19:26;;;;;;;4.00;2.70;;;2.40;99.90;;;;;;5060368;28;20048;-76
2022/12/02 07:21:52;;;;;;;2.70;1.98;;;2.40;86.80;;;;;;5060133;28;20277;-76
2022/12/02 07:24:20;;;;;;;1.70;1.60;;;2.40;1.00;;;;;;5060295;28;20113;-76
2022/12/02 07:26:46;;;;;;;3.30;3.05;;;2.40;99.90;;;;;;5060312;28;20056;-76
2022/12/02 07:29:29;;;;;;;3.40;3.08;;;2.40;99.90;;;;;;5065592;28;20411;-76
2022/12/02 07:31:55;;;;;;;4.88;3.72;;;2.40;18.90;;;;;;5068390;28;20094;-76
2022/12/02 07:34:21;;;;;;;3.47;3.17;;;2.40;18.60;;;;;;5060283;28;20045;-77
2022/12/02 07:36:46;;;;;;;1.42;1.33;;;2.30;20.80;;;;;;5060288;28;20068;-76
2022/12/02 07:39:12;;;;;;;4.15;2.58;;;2.30;1.00;;;;;;5060506;28;20047;-76
2022/12/02 07:41:38;;;;;;;3.28;2.97;;;2.30;99.90;;;;;;5060380;28;20041;-76
2022/12/02 07:44:04;;;;;;;2.13;1.90;;;2.30;99.90;;;;;;5060550;28;20608;-76
2022/12/02 07:46:30;;;;;;;5.07;4.53;;;2.30;1.00;;;;;;5060274;28;20036;-76
2022/12/02 07:48:55;;;;;;;4.07;1.90;;;2.30;1.00;;;;;;5042736;28;20114;-76
2022/12/02 07:51:21;;;;;;;1.58;1.45;;;2.20;99.90;;;;;;5060259;28;20045;-76
2022/12/02 07:53:47;;;;;;;1.60;1.50;;;2.20;1.00;;;;;;5060274;28;20438;-76
2022/12/02 07:56:12;;;;;;;4.43;3.92;;;2.20;1.00;;;;;;5060535;28;20040;-76
2022/12/02 07:58:38;;;;;;;3.22;1.65;;;2.20;99.90;;;;;;5060117;28;20040;-77
2022/12/02 08:01:04;;;;;;;3.65;1.73;;;2.20;36.30;;;;;;5046479;28;20096;-76
2022/12/02 08:03:29;;;;;;;5.68;4.13;;;2.20;99.90;;;;;;5025987;28;20056;-76
2022/12/02 08:05:55;;;;;;;7.53;2.90;;;2.20;99.90;;;;;;5043766;28;20075;-76
2022/12/02 08:08:22;;;;;;;4.43;3.95;;;2.20;99.90;;;;;;5049025;28;20068;-76
2022/12/02 08:10:47;;;;;;;4.32;2.88;;;2.20;99.90;;;;;;5044469;28;20146;-76
2022/12/02 08:13:13;;;;;;;2.45;2.28;;;2.20;85.90;;;;;;5043923;28;20159;-76
2022/12/02 08:15:39;;;;;;;6.75;4.55;;;2.20;20.10;;;;;;5043733;28;20047;-76
2022/12/02 08:18:04;;;;;;;8.02;3.85;;;2.20;99.90;;;;;;5043741;28;20508;-76
2022/12/02 08:20:31;;;;;;;2.83;2.60;;;2.20;99.90;;;;;;5042178;28;20120;-76
2022/12/02 08:22:57;;;;;;;10.70;2.92;;;2.20;99.90;;;;;;5032697;28;20057;-77
2022/12/02 08:25:23;;;;;;;1.25;1.20;;;2.20;99.90;;;;;;5064901;28;20047;-76
2022/12/02 08:27:49;;;;;;;2.33;2.15;;;2.20;99.90;;;;;;5064833;28;20051;-76
2022/12/02 08:30:16;;;;;;;2.05;1.52;;;2.20;99.90;;;;;;5046991;28;20047;-76
2022/12/02 08:32:42;;;;;;;1.40;1.30;;;2.20;99.90;;;;;;5064309;28;20056;-76
2022/12/02 08:35:08;;;;;;;2.10;1.85;;;2.20;99.90;;;;;;5061515;28;20119;-76
2022/12/02 08:37:33;;;;;;;2.60;2.40;;;2.20;99.90;;;;;;5061287;28;20466;-76
2022/12/02 08:39:59;;;;;;;11.73;3.90;;;2.30;99.90;;;;;;5059879;28;20087;-76
2022/12/02 08:42:25;;;;;;;2.53;1.50;;;2.30;87.10;;;;;;5061116;28;20097;-76
2022/12/02 08:44:50;;;;;;;1.48;1.38;;;2.30;99.90;;;;;;5052631;28;20060;-77
2022/12/02 08:47:16;;;;;;;7.70;2.83;;;2.20;50.00;;;;;;5035832;28;20045;-76
2022/12/02 08:49:42;;;;;;;1.35;1.30;;;2.20;99.90;;;;;;5056329;28;20070;-76
2022/12/02 08:52:08;;;;;;;0.68;0.68;;;2.20;57.60;;;;;;5021307;28;20049;-76
2022/12/02 08:54:34;;;;;;;2.58;2.38;;;2.10;1.00;;;;;;5021608;28;20040;-76
2022/12/02 08:56:59;;;;;;;0.70;0.70;;;2.20;99.90;;;;;;5021681;28;20182;-76
2022/12/02 08:59:26;;;;;;;4.13;3.28;;;2.20;99.90;;;;;;5022656;28;20164;-76
2022/12/02 09:01:53;;;;;;;3.60;2.35;;;2.10;99.90;;;;;;5041456;28;20218;-77
2022/12/02 09:04:19;;;;;;;3.50;2.25;;;2.10;99.90;;;;;;5041110;28;20040;-76
2022/12/02 09:06:44;;;;;;;2.30;1.80;;;2.10;99.90;;;;;;5059287;28;20040;-76
2022/12/02 09:09:10;;;;;;;4.18;2.63;;;2.10;99.90;;;;;;5059208;28;20489;-76
2022/12/02 09:11:36;;;;;;;3.00;2.70;;;2.10;99.90;;;;;;5040348;28;20052;-76
2022/12/02 09:14:02;;;;;;;0.95;0.95;;;2.10;99.90;;;;;;5057769;28;20048;-76
2022/12/02 09:16:27;;;;;;;2.53;2.33;;;2.10;99.90;;;;;;5040784;28;20185;-76
2022/12/02 09:18:54;;;;;;;2.05;1.90;;;2.10;99.90;;;;;;5059404;28;20048;-76
2022/12/02 09:21:21;;;;;;;2.92;2.55;;;2.10;99.90;;;;;;5058649;28;20053;-76
2022/12/02 09:23:47;;;;;;;3.00;1.98;;;2.20;1.00;;;;;;5059100;28;20461;-76
2022/12/02 09:26:12;;;;;;;1.70;1.60;;;2.30;99.90;;;;;;5059266;28;20040;-76
2022/12/02 09:28:38;;;;;;;4.40;3.15;;;2.30;99.90;;;;;;5059805;28;20094;-76
2022/12/02 09:31:03;;;;;;;2.30;2.00;;;2.40;99.90;;;;;;5059900;28;20041;-76
2022/12/02 09:33:29;;;;;;;2.72;2.50;;;2.40;99.90;;;;;;5041660;28;20045;-76
2022/12/02 09:35:55;;;;;;;1.95;1.85;;;2.50;99.90;;;;;;5059648;28;20040;-76
2022/12/02 09:38:20;;;;;;;3.35;2.45;;;2.60;99.90;;;;;;5059787;28;20824;-76
2022/12/02 09:40:46;;;;;;;2.47;2.28;;;2.70;99.90;;;;;;5061047;28;20074;-76
2022/12/02 09:43:13;;;;;;;11.20;4.03;;;2.80;29.90;;;;;;5064434;28;20048;-76
2022/12/02 09:45:40;;;;;;;3.92;3.00;;;2.80;99.90;;;;;;5064537;28;20053;-76
2022/12/02 09:48:07;;;;;;;4.95;3.22;;;2.90;1.00;;;;;;5063036;28;20070;-76
2022/12/02 09:50:33;;;;;;;4.57;3.88;;;2.90;1.00;;;;;;5061887;28;20056;-76
2022/12/02 09:53:05;;;;;;;6.80;4.07;;;2.80;99.90;;;;;;5043534;28;20494;-76
2022/12/02 09:55:31;;;;;;;4.93;4.50;;;2.70;99.90;;;;;;5043591;28;20044;-76
2022/12/02 09:58:10;;;;;;;5.00;3.40;;;3.10;1.00;;;;;;5062000;28;20044;-76
2022/12/02 10:00:35;;;;;;;3.30;2.97;;;2.70;99.90;;;;;;5061642;28;20509;-76
2022/12/02 10:03:01;;;;;;;7.20;3.75;;;2.70;87.60;;;;;;5061536;28;20173;-76
2022/12/02 10:05:28;;;;;;;2.22;1.30;;;2.60;99.90;;;;;;5060129;28;20147;-76
2022/12/02 10:07:57;;;;;;;1.83;1.73;;;2.60;63.20;;;;;;5059936;28;20052;-76
2022/12/02 10:10:27;;;;;;;2.67;1.70;;;2.60;99.90;;;;;;5059980;28;20048;-73
2022/12/02 10:12:53;;;;;;;1.67;1.58;;;2.50;9.70;;;;;;5059998;28;20122;-75
2022/12/02 10:15:25;;;;;;;4.85;3.30;;;2.50;99.90;;;;;;5059880;28;20091;-75
2022/12/02 10:17:52;;;;;;;5.53;2.75;;;2.50;99.90;;;;;;5059866;28;20432;-76
2022/12/02 10:20:26;;;;;;;7.20;5.05;;;2.60;1.00;;;;;;5061266;28;20090;-76
2022/12/02 10:23:12;;;;;;;9.45;2.67;;;2.50;99.90;;;;;;5061374;28;20052;-76
2022/12/02 10:25:41;;;;;;;2.10;2.00;;;2.50;1.00;;;;;;5043277;28;20127;-76
2022/12/02 10:28:22;;;;;;;4.10;1.10;;;2.50;96.20;;;;;;5043406;28;20827;-76
2022/12/02 10:30:50;;;;;;;3.10;2.90;;;2.50;98.40;;;;;;5061349;28;20052;-75
2022/12/02 10:33:15;;;;;;;3.70;3.42;;;2.40;76.20;;;;;;5059586;28;20135;-75
2022/12/02 10:35:47;;;;;;;3.58;2.90;;;2.40;99.90;;;;;;5060867;28;20185;-75
2022/12/02 10:38:33;;;;;;;6.78;1.52;;;2.40;99.90;;;;;;5061243;28;20497;-75
2022/12/02 10:41:28;;;;;;;1.30;1.23;;;2.40;99.90;;;;;;5060916;28;20109;-75
2022/12/02 10:44:03;;;;;;;3.42;3.13;;;2.40;99.90;;;;;;5044036;28;20091;-75
2022/12/02 10:46:29;;;;;;;6.03;2.83;;;2.50;99.90;;;;;;5061309;28;20087;-75
2022/12/02 10:48:55;;;;;;;1.55;1.13;;;2.50;99.90;;;;;;5060995;28;20536;-75
2022/12/02 10:51:21;;;;;;;8.32;5.38;;;2.50;99.90;;;;;;5060948;28;20464;-75
2022/12/02 10:53:50;;;;;;;4.25;2.67;;;2.50;99.90;;;;;;5042985;28;20132;-75
2022/12/02 10:56:22;;;;;;;7.70;3.25;;;2.40;99.90;;;;;;5060816;28;20055;-75
2022/12/02 10:58:50;;;;;;;3.55;2.83;;;2.40;99.90;;;;;;5060844;28;20120;-75
2022/12/02 11:01:18;;;;;;;2.67;2.05;;;2.40;99.90;;;;;;5060866;28;20057;-75
2022/12/02 11:03:43;;;;;;;1.02;0.88;;;2.40;99.90;;;;;;5060937;28;21068;-75
2022/12/02 11:06:20;;;;;;;4.38;1.52;;;2.40;99.90;;;;;;5060841;28;20044;-75
2022/12/02 11:08:47;;;;;;;2.80;2.60;;;2.50;99.90;;;;;;5060560;28;20044;-75
2022/12/02 11:11:37;;;;;;;3.38;3.03;;;2.50;99.90;;;;;;5060557;28;20041;-75
2022/12/02 11:14:11;;;;;;;4.88;3.05;;;2.50;99.90;;;;;;5060793;28;20049;-75
2022/12/02 11:16:36;;;;;;;4.05;3.35;;;2.60;99.90;;;;;;5042137;28;20494;-75
2022/12/02 11:19:09;;;;;;;9.75;5.68;;;2.60;99.90;;;;;;5060387;28;20051;-75
2022/12/02 11:21:41;;;;;;;1.55;1.45;;;2.60;99.90;;;;;;5041854;28;20092;-76
2022/12/02 11:24:22;;;;;;;1.35;1.25;;;2.60;1.00;;;;;;5043036;28;20049;-75
2022/12/02 11:27:03;;;;;;;4.63;4.22;;;2.60;36.30;;;;;;5059811;28;20098;-75
2022/12/02 11:30:03;;;;;;;17.65;3.50;;;2.60;99.90;;;;;;5060761;28;20049;-75
2022/12/02 11:32:35;;;;;;;2.40;2.22;;;2.60;1.00;;;;;;5060491;28;20048;-75
2022/12/02 11:35:01;;;;;;;1.55;1.50;;;2.60;99.30;;;;;;5042419;28;20178;-75
2022/12/02 11:37:29;;;;;;;2.88;2.53;;;2.70;99.90;;;;;;5043881;28;20048;-75
2022/12/02 11:40:00;;;;;;;3.00;2.70;;;2.70;99.90;;;;;;5064336;28;20136;-75
2022/12/02 11:42:29;;;;;;;4.40;4.00;;;2.70;99.90;;;;;;5064174;28;20053;-75
2022/12/02 11:45:10;;;;;;;1.92;1.80;;;2.60;99.90;;;;;;5046874;28;20056;-76
2022/12/02 11:47:36;;;;;;;1.67;1.58;;;2.60;1.00;;;;;;5064718;28;20063;-75
2022/12/02 11:50:14;;;;;;;5.25;3.50;;;2.50;1.00;;;;;;5064853;28;20044;-76
2022/12/02 11:52:42;;;;;;;2.65;2.22;;;2.50;14.80;;;;;;5064354;28;20399;-76
2022/12/02 11:55:15;;;;;;;5.35;3.03;;;2.50;99.90;;;;;;5064314;28;20109;-76
2022/12/02 11:57:50;;;;;;;16.83;4.00;;;2.60;99.90;;;;;;5065183;28;20048;-76
2022/12/02 12:00:23;;;;;;;3.03;2.22;;;2.60;1.00;;;;;;5064795;28;20628;-75
2022/12/02 12:03:15;;;;;;;4.10;3.30;;;2.60;1.00;;;;;;5064782;28;20429;-76
2022/12/02 12:06:01;;;;;;;1.63;1.52;;;2.50;99.90;;;;;;5065046;28;20048;-76
2022/12/02 12:08:27;;;;;;;0.32;0.32;;;2.50;99.90;;;;;;5064810;28;20853;-76
2022/12/02 12:11:14;;;;;;;2.38;1.95;;;2.50;99.90;;;;;;5064908;28;20123;-76
2022/12/02 12:14:18;;;;;;;19.10;5.65;;;2.50;1.00;;;;;;5047105;28;20044;-75
2022/12/02 12:16:46;;;;;;;2.97;2.75;;;2.50;92.00;;;;;;5064828;28;20560;-76
2022/12/02 12:19:11;;;;;;;1.83;1.65;;;2.50;99.70;;;;;;5064148;28;20502;-75
2022/12/02 12:21:41;;;;;;;2.08;1.95;;;2.60;99.90;;;;;;5064360;28;20051;-75
2022/12/02 12:26:43;;;;;;;2.58;2.38;;;2.60;40.40;;;;;;5064260;28;20048;-75
2022/12/02 12:29:09;;;;;;;0.45;0.45;;;2.60;1.00;;;;;;5064263;28;20052;-76
2022/12/02 12:31:34;;;;;;;3.70;3.15;;;2.60;1.00;;;;;;5064288;28;20051;-75
2022/12/02 12:34:01;;;;;;;6.50;3.65;;;2.70;1.00;;;;;;5064333;28;20044;-76
2022/12/02 12:36:26;;;;;;;3.83;3.00;;;2.70;1.00;;;;;;5064064;28;20139;-75
2022/12/02 12:38:52;;;;;;;1.48;1.35;;;2.70;99.90;;;;;;5064158;28;20087;-76
2022/12/02 12:41:18;;;;;;;3.90;3.25;;;2.70;1.00;;;;;;5063304;28;20547;-76
2022/12/02 12:43:43;;;;;;;3.00;2.58;;;2.70;18.70;;;;;;5063875;28;20102;-75
2022/12/02 12:46:09;;;;;;;9.68;3.10;;;2.70;99.90;;;;;;5061861;28;20053;-76
2022/12/02 12:48:35;;;;;;;3.80;3.35;;;2.70;99.90;;;;;;5060091;28;20044;-76
2022/12/02 12:51:00;;;;;;;5.47;3.80;;;2.70;32.60;;;;;;5061205;28;20081;-76
2022/12/02 12:53:26;;;;;;;4.35;3.53;;;2.60;1.00;;;;;;5061437;28;20094;-76
2022/12/02 12:55:52;;;;;;;3.40;3.20;;;2.70;99.90;;;;;;5061564;28;20580;-76
2022/12/02 12:58:18;;;;;;;7.95;4.45;;;2.70;99.90;;;;;;5061440;28;20071;-76
2022/12/02 13:00:43;;;;;;;2.25;2.05;;;2.60;99.90;;;;;;5061448;28;20808;-76
2022/12/02 13:03:09;;;;;;;2.72;2.53;;;2.60;99.90;;;;;;5061289;28;20056;-76
2022/12/02 13:05:35;;;;;;;3.67;2.20;;;2.60;99.90;;;;;;5043607;28;20409;-76
2022/12/02 13:08:00;;;;;;;2.40;1.30;;;2.60;99.90;;;;;;5061168;28;20037;-76
2022/12/02 13:10:26;;;;;;;2.85;2.15;;;2.60;99.90;;;;;;5043556;28;20471;-76
2022/12/02 13:12:52;;;;;;;3.53;2.80;;;2.60;99.90;;;;;;5061435;28;20040;-76
2022/12/02 13:15:18;;;;;;;5.45;4.45;;;2.60;1.00;;;;;;5061104;28;20040;-76